Latest Weather Observations for Mildura

IDN60801

Issued at 1:03 pm EDT Thursday 23 January 2020 (issued every 10 minutes, with the page automatically refreshed every 10 minutes)

About weather observations | Map of weather stations | Latest weather observations for NSW | Other Formats
Station Details ID: 076031 Name: MILDURA AIRPORT Lat: -34.24 Lon: 142.09 Height: 50.0 m
Data from the previous 72 hours. | See also: Recent months at Mildura
Date/Time
EDT
Temp
°C
App
Temp
°C
Dew
Point
°C
Rel
Hum
%
Delta-T
°C
Wind Press
QNH
hPa
Press
MSL
hPa
Rain since
9am
mm
Dir  Spd
km/h
Gust
km/h
Spd
kts
Gust
kts
23/01:00pm 23.6 18.0 10.3 43 7.4 W 30 50 16 27 1002.7 1002.4 0.2
23/12:35pm 25.3 18.7 7.9 33 9.3 W 32 59 17 32 1002.5 1002.2 0.2
23/12:30pm 24.8 19.2 8.7 36 8.7 W 28 46 15 25 1002.4 1002.1 0.2
23/12:24pm 24.7 18.6 8.2 35 8.8 WNW 30 50 16 27 1002.5 1002.2 0.2
23/12:01pm 24.0 17.8 8.0 36 8.5 WNW 30 54 16 29 1002.4 1002.1 0.2
23/12:00pm 24.4 18.3 8.4 36 8.6 W 30 46 16 25 1002.4 1002.1 0.2
23/11:46am 23.5 17.7 8.0 37 8.2 WNW 28 50 15 27 1002.4 1002.1 0.2
23/11:30am 23.5 18.3 8.8 39 7.9 W 26 46 14 25 1002.4 1002.1 0.2
23/11:11am 23.9 17.9 8.7 38 8.2 W 30 50 16 27 1002.4 1002.1 0.2
23/11:08am 23.9 17.5 8.7 38 8.2 WNW 32 48 17 26 1002.4 1002.1 0.2
23/11:00am 23.5 17.1 8.4 38 8.1 WNW 32 48 17 26 1002.3 1002.0 0.2
23/10:31am 22.8 17.2 8.9 41 7.4 WNW 28 46 15 25 1001.9 1001.6 0.2
23/10:30am 23.0 17.1 9.0 41 7.5 WNW 30 46 16 25 1001.9 1001.6 0.2
23/10:10am 22.3 16.9 9.5 44 6.9 WNW 28 46 15 25 1001.8 1001.5 0.2
23/10:00am 21.7 15.8 8.9 44 6.8 WNW 30 44 16 24 1001.7 1001.4 0.2
23/09:30am 21.5 16.2 9.7 47 6.4 WNW 28 43 15 23 1001.5 1001.2 0.0
23/09:27am 21.4 15.9 9.3 46 6.5 WNW 28 46 15 25 1001.5 1001.2 0.0
23/09:00am 20.9 15.7 10.1 50 5.9 WNW 28 43 15 23 1001.4 1001.1 1.0
23/08:57am 20.6 15.2 9.5 49 5.9 WNW 28 46 15 25 1001.4 1001.1 1.0
23/08:30am 19.6 17.0 11.9 61 4.3 NW 17 26 9 14 1001.1 1000.8 1.0
23/08:00am 17.8 16.4 12.3 70 3.1 NNW 11 19 6 10 1000.6 1000.3 1.0
23/07:30am 17.4 15.9 11.9 70 3.0 NNW 11 17 6 9 1000.0 999.7 1.0
23/07:00am 17.6 16.0 11.6 68 3.3 NNW 11 17 6 9 999.6 999.3 1.0
23/06:30am 17.4 16.2 11.7 69 3.1 NNW 9 13 5 7 999.8 999.5 1.0
23/06:00am 17.0 15.9 12.1 73 2.7 NNW 9 13 5 7 999.7 999.4 1.0
23/05:30am 16.9 16.4 12.8 77 2.3 N 7 9 4 5 999.9 999.6 1.0
23/05:00am 16.8 16.8 13.7 82 1.8 NNW 6 9 3 5 999.7 999.4 1.0
23/04:30am 16.3 16.1 13.0 81 1.8 WSW 6 9 3 5 999.3 999.0 1.0
23/04:00am 16.4 16.7 13.5 83 1.6 W 4 9 2 5 999.9 999.6 1.0
23/03:30am 16.7 16.1 12.3 75 2.4 SW 7 11 4 6 1000.1 999.8 0.6
23/03:00am 17.2 16.6 12.3 73 2.7 WSW 7 11 4 6 1000.9 1000.6 0.4
23/02:30am 18.8 16.5 10.4 58 4.5 SW 13 20 7 11 1000.4 1000.1 0.2
23/02:00am 19.5 17.6 10.5 56 4.9 SSW 11 17 6 9 1000.4 1000.1 0.2
23/01:30am 19.8 17.6 10.8 56 4.9 S 13 19 7 10 1000.3 1000.0 0.2
23/01:00am 20.0 18.2 10.7 55 5.1 S 11 17 6 9 1000.1 999.8 0.2
23/12:30am 20.2 17.9 10.6 54 5.2 S 13 22 7 12 1000.1 999.8 0.2
23/12:00am 20.6 17.6 10.7 53 5.4 S 17 24 9 13 1000.1 999.8 0.2
 
Date/Time
EDT
Temp
°C
App
Temp
°C
Dew
Point
°C
Rel
Hum
%
Delta-T
°C
Wind Press
QNH
hPa
Press
MSL
hPa
Rain since
9am
mm
Dir  Spd
km/h
Gust
km/h
Spd
kts
Gust
kts
22/11:30pm 20.9 17.5 10.7 52 5.6 SSW 19 33 10 18 999.9 999.6 0.2
22/11:00pm 21.4 18.1 10.9 51 5.8 S 19 30 10 16 999.9 999.6 0.2
22/10:30pm 22.6 19.4 12.0 51 6.0 SSW 20 33 11 18 999.6 999.3 0.2
22/10:00pm 24.6 21.7 12.2 46 7.1 SSW 19 28 10 15 999.2 998.9 0.2
22/09:30pm 25.3 23.1 12.2 44 7.5 SSW 15 22 8 12 998.2 997.9 0.2
22/09:00pm 25.9 23.8 12.4 43 7.8 SSW 15 24 8 13 997.9 997.6 0.2
22/08:30pm 27.1 24.2 12.3 39 8.6 SSW 19 26 10 14 997.4 997.1 0.2
22/08:00pm 28.6 26.9 12.5 37 9.5 WNW 13 22 7 12 997.3 997.0 0.2
22/07:30pm 29.7 26.8 12.2 34 10.3 NW 19 33 10 18 997.0 996.8 0.2
22/07:00pm 29.8 25.4 11.8 33 10.5 NW 26 39 14 21 996.5 996.3 0.2
22/06:46pm 30.2 25.4 11.7 32 10.8 NW 28 50 15 27 996.5 996.3 0.2
22/06:30pm 27.1 24.9 14.5 46 7.6 WNW 19 30 10 16 996.3 996.1 0.2
22/06:04pm 30.0 24.7 12.4 34 10.4 NW 32 52 17 28 996.7 996.5 0.0
22/06:03pm 31.4 26.2 11.7 29 11.5 NW 30 44 16 24 996.7 996.5 0.0
22/06:00pm 32.2 27.1 9.1 24 13.1 NW 26 44 14 24 996.1 995.9 0.0
22/05:46pm 31.5 26.9 9.7 26 12.4 NNW 24 44 13 24 996.0 995.8 0.0
22/05:30pm 34.9 28.3 4.4 15 16.2 NNW 28 56 15 30 996.3 996.1 0.0
22/05:00pm 35.0 30.2 2.5 13 16.8 NNW 17 28 9 15 996.2 996.0 0.0
22/04:38pm 35.0 28.1 2.5 13 16.7 NNW 28 52 15 28 996.5 996.3 0.0
22/04:30pm 35.2 29.1 2.6 13 16.8 NNW 24 52 13 28 996.6 996.4 0.0
22/04:00pm 35.1 27.5 2.6 13 16.9 NNW 32 54 17 29 997.4 997.1 0.0
22/03:30pm 34.7 28.1 4.3 15 16.1 NNW 28 46 15 25 997.9 997.6 0.0
22/03:21pm 34.5 27.7 3.1 14 16.3 NNW 28 46 15 25 998.2 997.9 0.0
22/03:00pm 33.9 28.7 3.7 15 15.8 NNW 20 43 11 23 998.5 998.2 0.0
22/02:39pm 33.4 26.6 5.0 17 15.1 NNW 30 48 16 26 999.6 999.3 0.0
22/02:30pm 33.6 27.4 4.3 16 15.4 N 26 44 14 24 999.6 999.3 0.0
22/02:06pm 34.0 25.1 0.6 12 16.6 N 37 56 20 30 999.7 999.4 0.0
22/02:00pm 34.0 24.9 1.7 13 16.4 N 39 54 21 29 999.5 999.2 0.0
22/01:52pm 34.2 25.5 1.9 13 16.4 N 37 56 20 30 999.7 999.4 0.0
22/01:30pm 34.1 25.0 1.8 13 16.4 N 39 54 21 29 999.9 999.6 0.0
22/01:13pm 34.0 25.3 1.7 13 16.3 N 37 48 20 26 1000.4 1000.1 0.0
22/01:12pm 34.2 25.5 1.9 13 16.4 N 37 48 20 26 1000.4 1000.1 0.0
22/01:00pm 33.8 25.0 1.6 13 16.3 N 37 52 20 28 1000.7 1000.4 0.0
22/12:58pm 33.7 24.9 1.5 13 16.2 N 37 52 20 28 1000.7 1000.4 0.0
22/12:43pm 33.3 25.0 2.2 14 15.8 N 35 54 19 29 1001.1 1000.8 0.0
22/12:30pm 33.0 25.2 2.0 14 15.6 N 32 43 17 23 1001.4 1001.1 0.0
22/12:00pm 32.1 25.7 3.1 16 14.9 NNW 26 41 14 22 1003.1 1002.8 0.0
22/11:30am 31.7 24.6 3.7 17 14.4 N 30 39 16 21 1002.4 1002.1 0.0
22/11:13am 32.7 25.4 4.5 17 14.8 N 32 50 17 27 1002.8 1002.5 0.0
22/11:00am 31.4 24.0 4.2 18 14.2 N 32 46 17 25 1003.0 1002.7 0.0
22/10:31am 31.0 24.1 4.7 19 13.7 N 30 48 16 26 1003.2 1002.9 0.0
22/10:30am 31.0 24.1 4.7 19 13.7 N 30 41 16 22 1003.2 1002.9 0.0
22/10:10am 30.1 22.8 4.7 20 13.2 N 32 50 17 27 1003.1 1002.8 0.0
22/10:00am 30.2 22.8 4.0 19 13.5 N 32 48 17 26 1003.2 1002.9 0.0
22/09:30am 28.8 22.2 4.3 21 12.5 NNE 28 35 15 19 1003.5 1003.2 0.0
22/09:00am 26.2 20.6 5.2 26 10.8 NNE 24 32 13 17 1004.0 1003.7 0.0
22/08:30am 23.6 20.4 6.8 34 8.7 NNE 13 17 7 9 1004.3 1004.0 0.0
22/08:00am 22.1 19.1 7.5 39 7.6 NNE 13 17 7 9 1004.3 1004.0 0.0
22/07:30am 21.6 17.5 7.8 41 7.2 NNE 19 22 10 12 1004.0 1003.7 0.0
22/07:00am 20.8 16.7 7.8 43 6.8 NNE 19 22 10 12 1003.5 1003.2 0.0
22/06:30am 20.5 16.2 7.8 44 6.6 NNE 20 24 11 13 1003.5 1003.2 0.0
22/06:00am 20.2 16.1 7.9 45 6.4 NE 19 22 10 12 1003.7 1003.4 0.0
22/05:30am 18.1 15.5 7.8 51 5.2 NNE 11 13 6 7 1004.2 1003.9 0.0
22/05:00am 20.0 17.6 8.7 48 6.0 N 11 13 6 7 1004.4 1004.1 0.0
22/04:30am 19.1 16.7 8.7 51 5.4 NNE 11 13 6 7 1004.7 1004.4 0.0
22/04:00am 19.3 16.4 8.3 49 5.7 NNE 13 13 7 7 1004.8 1004.5 0.0
22/03:30am 21.5 19.3 7.7 41 7.2 N 9 13 5 7 1005.1 1004.8 0.0
22/03:00am 20.8 17.9 8.1 44 6.6 NNE 13 15 7 8 1005.1 1004.8 0.0
22/02:30am 21.3 18.3 7.9 42 7.0 NNE 13 15 7 8 1005.2 1004.9 0.0
22/02:00am 20.7 18.2 8.0 44 6.6 NNE 11 13 6 7 1005.5 1005.2 0.0
22/01:30am 21.4 18.5 8.0 42 7.0 NNE 13 13 7 7 1005.7 1005.4 0.0
22/01:00am 21.7 19.1 7.9 41 7.2 NE 11 15 6 8 1006.1 1005.8 0.0
22/12:30am 22.0 20.0 8.5 42 7.1 NE 9 13 5 7 1006.2 1005.9 0.0
22/12:00am 22.4 20.0 8.5 41 7.4 NE 11 13 6 7 1006.2 1005.9 0.0
 
Date/Time
EDT
Temp
°C
App
Temp
°C
Dew
Point
°C
Rel
Hum
%
Delta-T
°C
Wind Press
QNH
hPa
Press
MSL
hPa
Rain since
9am
mm
Dir  Spd
km/h
Gust
km/h
Spd
kts
Gust
kts
21/11:30pm 22.7 20.3 8.8 41 7.4 NNE 11 13 6 7 1006.3 1006.0 0.0
21/11:00pm 23.1 20.6 8.4 39 7.8 NNE 11 13 6 7 1006.5 1006.2 0.0
21/10:30pm 24.4 22.3 8.4 36 8.6 NE 9 11 5 6 1006.6 1006.4 0.0
21/10:00pm 25.3 22.7 7.9 33 9.3 NE 11 13 6 7 1006.6 1006.4 0.0
21/09:30pm 25.9 23.6 7.5 31 9.8 NNE 9 13 5 7 1006.6 1006.4 0.0
21/09:00pm 27.1 24.4 7.5 29 10.5 N 11 13 6 7 1006.5 1006.2 0.0
21/08:30pm 28.2 25.9 7.4 27 11.2 NNW 9 13 5 7 1006.4 1006.1 0.0
21/08:00pm 28.8 26.4 6.8 25 11.8 NNW 9 17 5 9 1006.4 1006.1 0.0
21/07:30pm 28.8 25.5 6.2 24 11.9 NNW 13 19 7 10 1006.4 1006.1 0.0
21/07:00pm 29.5 26.3 6.8 24 12.2 NNW 13 24 7 13 1006.3 1006.0 0.0
21/06:30pm 29.1 25.6 7.1 25 11.8 NNW 15 22 8 12 1006.3 1006.0 0.0
21/06:00pm 29.1 25.2 7.1 25 11.9 NW 17 32 9 17 1006.6 1006.4 0.0
21/05:30pm 28.8 25.7 7.4 26 11.5 N 13 20 7 11 1007.0 1006.8 0.0
21/05:00pm 28.5 25.5 7.7 27 11.3 NW 13 22 7 12 1007.3 1007.1 0.0
21/04:30pm 29.0 25.3 8.1 27 11.4 NNW 17 30 9 16 1007.7 1007.5 0.0
21/04:00pm 27.1 23.5 8.5 31 10.1 N 17 26 9 14 1008.2 1008.0 0.0
21/03:30pm 26.9 24.9 8.8 32 9.9 NNW 9 19 5 10 1008.7 1008.5 0.0
21/03:00pm 26.3 23.9 8.8 33 9.5 NNW 11 20 6 11 1009.2 1009.0 0.0
21/02:30pm 26.4 23.7 8.8 33 9.6 NW 13 20 7 11 1009.5 1009.3 0.0
21/02:00pm 25.7 23.7 8.7 34 9.2 NNW 9 17 5 9 1010.1 1009.9 0.0
21/01:30pm 24.4 21.8 9.2 38 8.3 E 13 24 7 13 1010.3 1010.1 0.0
21/01:00pm 24.2 22.3 9.0 38 8.2 NNE 9 13 5 7 1011.0 1010.8 0.0
21/12:30pm 23.3 22.0 9.3 41 7.6 SE 6 13 3 7 1011.4 1011.2 0.0
21/12:00pm 22.3 20.8 9.1 43 7.1 E 7 11 4 6 1011.8 1011.6 0.0
21/11:30am 21.8 20.0 9.3 45 6.7 S 9 17 5 9 1011.9 1011.7 0.0
21/11:00am 20.4 18.4 10.2 52 5.5 S 11 17 6 9 1012.3 1012.1 0.0
21/10:30am 19.4 17.9 10.4 56 4.9 SW 9 15 5 8 1012.5 1012.3 0.0
21/10:00am 18.6 17.1 10.4 59 4.4 SSW 9 13 5 7 1012.9 1012.7 0.0
21/09:30am 17.7 16.4 10.1 61 4.0 S 7 13 4 7 1012.9 1012.7 0.0
21/09:00am 16.5 14.4 9.7 64 3.6 S 11 19 6 10 1012.6 1012.4 0.2
21/08:30am 15.9 13.0 9.8 67 3.2 S 15 20 8 11 1012.2 1012.0 0.2
21/08:00am 15.0 12.6 10.0 72 2.6 S 13 19 7 10 1012.2 1012.0 0.2
21/07:30am 14.1 13.2 10.7 80 1.8 SSW 6 9 3 5 1012.2 1012.0 0.2
21/07:00am 13.7 12.6 10.7 82 1.6 S 7 13 4 7 1011.6 1011.4 0.2
21/06:30am 13.9 12.4 10.7 81 1.7 SSE 9 13 5 7 1011.3 1011.1 0.2
21/06:00am 13.9 13.1 10.9 82 1.6 SSW 6 11 3 6 1011.0 1010.8 0.2
21/05:30am 14.5 13.0 10.7 78 2.0 SSW 9 13 5 7 1010.7 1010.5 0.2
21/05:00am 14.7 13.7 10.9 78 2.0 WSW 7 9 4 5 1010.5 1010.3 0.2
21/04:30am 15.2 14.3 11.2 77 2.1 SSW 7 11 4 6 1009.8 1009.6 0.2
21/04:00am 15.5 14.6 11.5 77 2.2 SW 7 11 4 6 1009.5 1009.3 0.2
21/03:30am 15.9 14.8 11.9 77 2.2 SW 9 15 5 8 1009.7 1009.5 0.2
21/03:00am 16.5 15.4 12.1 75 2.4 S 9 13 5 7 1009.5 1009.3 0.2
21/02:30am 16.9 15.9 12.2 74 2.6 S 9 13 5 7 1009.6 1009.4 0.2
21/02:00am 17.7 15.9 12.2 70 3.0 S 13 19 7 10 1009.7 1009.5 0.2
21/01:30am 17.8 17.4 12.5 71 2.9 SSW 6 9 3 5 1009.9 1009.7 0.2
21/01:00am 18.5 17.2 12.5 68 3.4 S 11 17 6 9 1009.7 1009.5 0.2
21/12:30am 19.2 17.6 12.7 66 3.7 S 13 22 7 12 1009.7 1009.5 0.2
21/12:00am 19.9 17.1 12.7 63 4.1 S 19 28 10 15 1009.3 1009.1 0.2
 
Date/Time
EDT
Temp
°C
App
Temp
°C
Dew
Point
°C
Rel
Hum
%
Delta-T
°C
Wind Press
QNH
hPa
Press
MSL
hPa
Rain since
9am
mm
Dir  Spd
km/h
Gust
km/h
Spd
kts
Gust
kts
20/11:30pm 21.0 18.2 12.7 59 4.7 S 19 32 10 17 1009.4 1009.2 0.2
20/11:00pm 22.0 20.3 12.5 54 5.4 S 13 20 7 11 1009.3 1009.1 0.2
20/10:30pm 22.4 20.7 12.4 53 5.7 SSW 13 24 7 13 1009.0 1008.8 0.2
20/10:00pm 22.8 21.0 12.1 51 6.1 SW 13 19 7 10 1008.5 1008.3 0.2
20/09:30pm 23.4 20.8 12.1 49 6.4 SW 17 26 9 14 1008.0 1007.8 0.2
20/09:00pm 23.9 20.9 12.5 49 6.6 SW 20 28 11 15 1007.6 1007.4 0.2
20/08:30pm 24.3 21.4 12.3 47 6.9 SW 19 32 10 17 1007.2 1007.0 0.2
20/08:00pm 25.0 21.6 12.6 46 7.2 SW 22 32 12 17 1006.7 1006.5 0.2
20/07:30pm 25.5 21.7 12.4 44 7.6 SW 24 35 13 19 1006.3 1006.0 0.2
20/07:00pm 26.0 21.9 11.4 40 8.3 SW 24 35 13 19 1006.0 1005.7 0.2
20/06:30pm 25.5 22.1 11.3 41 8.0 SW 20 30 11 16 1005.7 1005.4 0.2
20/06:00pm 23.6 22.5 14.3 56 5.5 S 13 26 7 14 1005.4 1005.1 0.2
20/05:30pm 24.6 22.2 14.4 53 6.1 WSW 20 52 11 28 1005.5 1005.2 0.0
20/05:00pm 23.8 21.3 14.2 55 5.7 SW 20 32 11 17 1005.4 1005.1 0.0
20/04:30pm 24.2 21.7 14.0 53 6.0 WSW 20 28 11 15 1005.0 1004.7 0.0
20/04:25pm 24.0 21.0 13.8 53 6.0 SW 22 35 12 19 1005.0 1004.7 0.0
20/04:11pm 23.4 20.0 13.8 54 5.6 SW 24 43 13 23 1005.0 1004.7 0.0
20/04:00pm 26.4 23.3 11.7 40 8.4 SW 19 30 10 16 1004.7 1004.4 0.0
20/03:30pm 26.4 24.0 12.5 42 8.1 SSW 17 28 9 15 1004.7 1004.4 0.0
20/03:00pm 26.3 23.1 12.0 41 8.3 SSW 20 43 11 23 1004.9 1004.6 0.0
20/02:30pm 25.1 21.6 12.3 45 7.4 SSW 22 35 12 19 1005.0 1004.7 0.0
20/02:00pm 25.1 21.9 13.0 47 7.1 SW 22 32 12 17 1005.1 1004.8 0.0
20/01:30pm 24.8 21.9 13.0 47 6.9 SW 20 32 11 17 1005.4 1005.1 0.0

Other formats

Comma delimited format used in spreadsheet applications
http://www.bom.gov.au/fwo/IDN60801/IDN60801.94693.axf

JavaScript Object Notation format (JSON) in row-major order
http://www.bom.gov.au/fwo/IDN60801/IDN60801.94693.json

Data quality

Most of these data are generated automatically and are frequently updated. Quality checks on data are not normally performed. It is possible for incorrect values to appear. Refer to information at About Latest Weather Observations and please check the disclaimer before using these data.